<?xml version="1.0" encoding="UTF-8" standalone="no" ?>
<gpx xmlns="http://www.topografix.com/GPX/1/1" xmlns:xsi="http://www.w3.org/2001/XMLSchema-instance" xsi:schemaLocation="http://www.topografix.com/GPX/1/1 http://www.topografix.com/GPX/1/1/gpx.xsd" version="1.1" creator="VisuGPX - https://www.visugpx.com">
  <metadata>
    <name>Toutes traces 4x4 Côté Brindas</name>
  </metadata>
  <trk>
    <name><![CDATA[Vaugneray - Les Verchères]]></name>
    <extensions>
      <line xmlns="http://www.topografix.com/GPX/gpx_style/0/2">
        <color>880000</color>
        <width>4</width>
      </line>
    </extensions>
    <trkseg>
      <trkpt lat="45.73363" lon="4.63868">
        <ele>510.157</ele>
        <time>2021-04-27T16:24:57Z</time>
      </trkpt>
      <trkpt lat="45.73363" lon="4.63868">
        <ele>510.157</ele>
        <time>2021-04-27T16:24:57Z</time>
      </trkpt>
      <trkpt lat="45.73359" lon="4.63861">
        <ele>510.3</ele>
        <time>2021-04-27T16:24:59Z</time>
      </trkpt>
      <trkpt lat="45.73356" lon="4.63854">
        <ele>511.32</ele>
        <time>2021-04-27T16:25:02Z</time>
      </trkpt>
      <trkpt lat="45.73354" lon="4.63847">
        <ele>512.308</ele>
        <time>2021-04-27T16:25:05Z</time>
      </trkpt>
      <trkpt lat="45.73353" lon="4.6384">
        <ele>513.032</ele>
        <time>2021-04-27T16:25:08Z</time>
      </trkpt>
      <trkpt lat="45.73351" lon="4.63832">
        <ele>513.436</ele>
        <time>2021-04-27T16:25:10Z</time>
      </trkpt>
      <trkpt lat="45.73349" lon="4.63826">
        <ele>514.051</ele>
        <time>2021-04-27T16:25:12Z</time>
      </trkpt>
      <trkpt lat="45.73348" lon="4.63817">
        <ele>515.189</ele>
        <time>2021-04-27T16:25:15Z</time>
      </trkpt>
      <trkpt lat="45.73346" lon="4.63807">
        <ele>516.178</ele>
        <time>2021-04-27T16:25:18Z</time>
      </trkpt>
      <trkpt lat="45.73344" lon="4.63801">
        <ele>516.73</ele>
        <time>2021-04-27T16:25:20Z</time>
      </trkpt>
      <trkpt lat="45.73341" lon="4.63795">
        <ele>517.522</ele>
        <time>2021-04-27T16:25:23Z</time>
      </trkpt>
      <trkpt lat="45.7334" lon="4.63788">
        <ele>518.466</ele>
        <time>2021-04-27T16:25:27Z</time>
      </trkpt>
      <trkpt lat="45.73339" lon="4.63781">
        <ele>519.025</ele>
        <time>2021-04-27T16:25:31Z</time>
      </trkpt>
      <trkpt lat="45.73337" lon="4.63774">
        <ele>519.426</ele>
        <time>2021-04-27T16:25:33Z</time>
      </trkpt>
      <trkpt lat="45.73337" lon="4.63767">
        <ele>520.208</ele>
        <time>2021-04-27T16:25:36Z</time>
      </trkpt>
      <trkpt lat="45.73338" lon="4.6376">
        <ele>521.008</ele>
        <time>2021-04-27T16:25:39Z</time>
      </trkpt>
      <trkpt lat="45.73338" lon="4.63752">
        <ele>521.899</ele>
        <time>2021-04-27T16:25:42Z</time>
      </trkpt>
      <trkpt lat="45.73334" lon="4.63745">
        <ele>523.063</ele>
        <time>2021-04-27T16:25:46Z</time>
      </trkpt>
      <trkpt lat="45.73334" lon="4.63738">
        <ele>524.298</ele>
        <time>2021-04-27T16:25:50Z</time>
      </trkpt>
      <trkpt lat="45.73332" lon="4.63731">
        <ele>524.596</ele>
        <time>2021-04-27T16:25:51Z</time>
      </trkpt>
      <trkpt lat="45.7333" lon="4.63724">
        <ele>525.135</ele>
        <time>2021-04-27T16:25:54Z</time>
      </trkpt>
      <trkpt lat="45.7333" lon="4.63717">
        <ele>525.527</ele>
        <time>2021-04-27T16:25:56Z</time>
      </trkpt>
      <trkpt lat="45.73326" lon="4.63706">
        <ele>526.229</ele>
        <time>2021-04-27T16:25:58Z</time>
      </trkpt>
      <trkpt lat="45.73323" lon="4.637">
        <ele>526.773</ele>
        <time>2021-04-27T16:25:59Z</time>
      </trkpt>
      <trkpt lat="45.7332" lon="4.63693">
        <ele>527.712</ele>
        <time>2021-04-27T16:26:01Z</time>
      </trkpt>
      <trkpt lat="45.73318" lon="4.63686">
        <ele>528.432</ele>
        <time>2021-04-27T16:26:03Z</time>
      </trkpt>
      <trkpt lat="45.73318" lon="4.63675">
        <ele>528.905</ele>
        <time>2021-04-27T16:26:05Z</time>
      </trkpt>
      <trkpt lat="45.73318" lon="4.63666">
        <ele>529.608</ele>
        <time>2021-04-27T16:26:07Z</time>
      </trkpt>
      <trkpt lat="45.73316" lon="4.63659">
        <ele>530.548</ele>
        <time>2021-04-27T16:26:10Z</time>
      </trkpt>
      <trkpt lat="45.73316" lon="4.6365">
        <ele>531.112</ele>
        <time>2021-04-27T16:26:12Z</time>
      </trkpt>
      <trkpt lat="45.73315" lon="4.63643">
        <ele>531.757</ele>
        <time>2021-04-27T16:26:14Z</time>
      </trkpt>
      <trkpt lat="45.73316" lon="4.63635">
        <ele>532.115</ele>
        <time>2021-04-27T16:26:16Z</time>
      </trkpt>
      <trkpt lat="45.73316" lon="4.63624">
        <ele>532.384</ele>
        <time>2021-04-27T16:26:18Z</time>
      </trkpt>
      <trkpt lat="45.73316" lon="4.63618">
        <ele>532.586</ele>
        <time>2021-04-27T16:26:19Z</time>
      </trkpt>
      <trkpt lat="45.73316" lon="4.6361">
        <ele>532.948</ele>
        <time>2021-04-27T16:26:21Z</time>
      </trkpt>
      <trkpt lat="45.73315" lon="4.63598">
        <ele>533.832</ele>
        <time>2021-04-27T16:26:23Z</time>
      </trkpt>
      <trkpt lat="45.73314" lon="4.63585">
        <ele>534.668</ele>
        <time>2021-04-27T16:26:24Z</time>
      </trkpt>
      <trkpt lat="45.73311" lon="4.63571">
        <ele>535.442</ele>
        <time>2021-04-27T16:26:25Z</time>
      </trkpt>
      <trkpt lat="45.73308" lon="4.63561">
        <ele>536.226</ele>
        <time>2021-04-27T16:26:26Z</time>
      </trkpt>
      <trkpt lat="45.73308" lon="4.63551">
        <ele>537.108</ele>
        <time>2021-04-27T16:26:28Z</time>
      </trkpt>
      <trkpt lat="45.73308" lon="4.63544">
        <ele>537.173</ele>
        <time>2021-04-27T16:26:30Z</time>
      </trkpt>
      <trkpt lat="45.73307" lon="4.63536">
        <ele>537.287</ele>
        <time>2021-04-27T16:26:32Z</time>
      </trkpt>
      <trkpt lat="45.73306" lon="4.63529">
        <ele>537.672</ele>
        <time>2021-04-27T16:26:34Z</time>
      </trkpt>
      <trkpt lat="45.73303" lon="4.6352">
        <ele>538.24</ele>
        <time>2021-04-27T16:26:35Z</time>
      </trkpt>
      <trkpt lat="45.73301" lon="4.63513">
        <ele>539.099</ele>
        <time>2021-04-27T16:26:37Z</time>
      </trkpt>
      <trkpt lat="45.733" lon="4.63503">
        <ele>540.291</ele>
        <time>2021-04-27T16:26:40Z</time>
      </trkpt>
      <trkpt lat="45.73298" lon="4.63496">
        <ele>541.093</ele>
        <time>2021-04-27T16:26:42Z</time>
      </trkpt>
      <trkpt lat="45.73296" lon="4.63486">
        <ele>542.197</ele>
        <time>2021-04-27T16:26:45Z</time>
      </trkpt>
      <trkpt lat="45.73295" lon="4.63477">
        <ele>543.193</ele>
        <time>2021-04-27T16:26:48Z</time>
      </trkpt>
      <trkpt lat="45.73294" lon="4.63468">
        <ele>544.265</ele>
        <time>2021-04-27T16:26:51Z</time>
      </trkpt>
      <trkpt lat="45.73295" lon="4.6346">
        <ele>545.021</ele>
        <time>2021-04-27T16:26:54Z</time>
      </trkpt>
      <trkpt lat="45.73294" lon="4.63453">
        <ele>545.408</ele>
        <time>2021-04-27T16:26:57Z</time>
      </trkpt>
      <trkpt lat="45.73293" lon="4.63445">
        <ele>545.796</ele>
        <time>2021-04-27T16:27:00Z</time>
      </trkpt>
      <trkpt lat="45.73294" lon="4.63438">
        <ele>545.84</ele>
        <time>2021-04-27T16:27:02Z</time>
      </trkpt>
      <trkpt lat="45.73296" lon="4.63426">
        <ele>546.155</ele>
        <time>2021-04-27T16:27:04Z</time>
      </trkpt>
      <trkpt lat="45.73297" lon="4.63418">
        <ele>546.393</ele>
        <time>2021-04-27T16:27:05Z</time>
      </trkpt>
      <trkpt lat="45.73296" lon="4.63411">
        <ele>546.622</ele>
        <time>2021-04-27T16:27:06Z</time>
      </trkpt>
      <trkpt lat="45.73294" lon="4.63404">
        <ele>546.994</ele>
        <time>2021-04-27T16:27:07Z</time>
      </trkpt>
      <trkpt lat="45.73291" lon="4.63397">
        <ele>547.296</ele>
        <time>2021-04-27T16:27:08Z</time>
      </trkpt>
      <trkpt lat="45.73288" lon="4.63388">
        <ele>547.77</ele>
        <time>2021-04-27T16:27:10Z</time>
      </trkpt>
      <trkpt lat="45.73285" lon="4.63383">
        <ele>547.981</ele>
        <time>2021-04-27T16:27:11Z</time>
      </trkpt>
      <trkpt lat="45.73284" lon="4.63376">
        <ele>548.461</ele>
        <time>2021-04-27T16:27:13Z</time>
      </trkpt>
      <trkpt lat="45.73283" lon="4.63368">
        <ele>549.417</ele>
        <time>2021-04-27T16:27:16Z</time>
      </trkpt>
      <trkpt lat="45.73283" lon="4.63359">
        <ele>550.308</ele>
        <time>2021-04-27T16:27:19Z</time>
      </trkpt>
      <trkpt lat="45.73281" lon="4.63352">
        <ele>550.815</ele>
        <time>2021-04-27T16:27:21Z</time>
      </trkpt>
      <trkpt lat="45.7328" lon="4.63342">
        <ele>551.959</ele>
        <time>2021-04-27T16:27:25Z</time>
      </trkpt>
      <trkpt lat="45.73278" lon="4.63333">
        <ele>552.494</ele>
        <time>2021-04-27T16:27:27Z</time>
      </trkpt>
      <trkpt lat="45.73279" lon="4.63325">
        <ele>553.732</ele>
        <time>2021-04-27T16:27:31Z</time>
      </trkpt>
      <trkpt lat="45.73278" lon="4.63318">
        <ele>554.741</ele>
        <time>2021-04-27T16:27:34Z</time>
      </trkpt>
      <trkpt lat="45.73277" lon="4.63311">
        <ele>555.633</ele>
        <time>2021-04-27T16:27:37Z</time>
      </trkpt>
      <trkpt lat="45.73275" lon="4.63302">
        <ele>556.135</ele>
        <time>2021-04-27T16:27:39Z</time>
      </trkpt>
      <trkpt lat="45.73273" lon="4.63294">
        <ele>556.989</ele>
        <time>2021-04-27T16:27:42Z</time>
      </trkpt>
      <trkpt lat="45.73276" lon="4.63285">
        <ele>557.736</ele>
        <time>2021-04-27T16:27:46Z</time>
      </trkpt>
      <trkpt lat="45.7328" lon="4.63277">
        <ele>558.117</ele>
        <time>2021-04-27T16:27:49Z</time>
      </trkpt>
      <trkpt lat="45.73286" lon="4.63272">
        <ele>558.718</ele>
        <time>2021-04-27T16:27:52Z</time>
      </trkpt>
      <trkpt lat="45.73291" lon="4.63267">
        <ele>559.308</ele>
        <time>2021-04-27T16:27:54Z</time>
      </trkpt>
      <trkpt lat="45.73296" lon="4.63264">
        <ele>560.49</ele>
        <time>2021-04-27T16:27:58Z</time>
      </trkpt>
      <trkpt lat="45.73302" lon="4.6326">
        <ele>561.584</ele>
        <time>2021-04-27T16:28:01Z</time>
      </trkpt>
      <trkpt lat="45.73306" lon="4.63256">
        <ele>562.129</ele>
        <time>2021-04-27T16:28:04Z</time>
      </trkpt>
      <trkpt lat="45.73312" lon="4.63258">
        <ele>563.327</ele>
        <time>2021-04-27T16:28:07Z</time>
      </trkpt>
      <trkpt lat="45.73318" lon="4.63259">
        <ele>564.086</ele>
        <time>2021-04-27T16:28:10Z</time>
      </trkpt>
      <trkpt lat="45.73323" lon="4.63257">
        <ele>565.648</ele>
        <time>2021-04-27T16:28:14Z</time>
      </trkpt>
      <trkpt lat="45.73328" lon="4.63259">
        <ele>566.73</ele>
        <time>2021-04-27T16:28:18Z</time>
      </trkpt>
      <trkpt lat="45.73333" lon="4.63259">
        <ele>567.444</ele>
        <time>2021-04-27T16:28:22Z</time>
      </trkpt>
      <trkpt lat="45.73337" lon="4.63258">
        <ele>567.939</ele>
        <time>2021-04-27T16:28:25Z</time>
      </trkpt>
      <trkpt lat="45.73343" lon="4.63256">
        <ele>568.501</ele>
        <time>2021-04-27T16:28:28Z</time>
      </trkpt>
      <trkpt lat="45.73347" lon="4.63251">
        <ele>569.021</ele>
        <time>2021-04-27T16:28:31Z</time>
      </trkpt>
      <trkpt lat="45.73351" lon="4.63243">
        <ele>569.508</ele>
        <time>2021-04-27T16:28:34Z</time>
      </trkpt>
      <trkpt lat="45.73353" lon="4.63236">
        <ele>570.13</ele>
        <time>2021-04-27T16:28:36Z</time>
      </trkpt>
      <trkpt lat="45.73354" lon="4.63229">
        <ele>571.284</ele>
        <time>2021-04-27T16:28:39Z</time>
      </trkpt>
      <trkpt lat="45.73353" lon="4.6322">
        <ele>573.719</ele>
        <time>2021-04-27T16:28:47Z</time>
      </trkpt>
      <trkpt lat="45.73351" lon="4.63213">
        <ele>574.697</ele>
        <time>2021-04-27T16:28:51Z</time>
      </trkpt>
      <trkpt lat="45.73347" lon="4.63206">
        <ele>575.716</ele>
        <time>2021-04-27T16:28:54Z</time>
      </trkpt>
      <trkpt lat="45.73343" lon="4.63201">
        <ele>576.768</ele>
        <time>2021-04-27T16:28:57Z</time>
      </trkpt>
      <trkpt lat="45.73339" lon="4.63193">
        <ele>577.43</ele>
        <time>2021-04-27T16:29:00Z</time>
      </trkpt>
      <trkpt lat="45.73337" lon="4.63185">
        <ele>578.464</ele>
        <time>2021-04-27T16:29:03Z</time>
      </trkpt>
      <trkpt lat="45.73336" lon="4.63178">
        <ele>579.514</ele>
        <time>2021-04-27T16:29:06Z</time>
      </trkpt>
      <trkpt lat="45.73332" lon="4.63175">
        <ele>580.454</ele>
        <time>2021-04-27T16:29:09Z</time>
      </trkpt>
      <trkpt lat="45.73328" lon="4.63172">
        <ele>581.209</ele>
        <time>2021-04-27T16:29:12Z</time>
      </trkpt>
      <trkpt lat="45.73323" lon="4.63168">
        <ele>582.508</ele>
        <time>2021-04-27T16:29:17Z</time>
      </trkpt>
      <trkpt lat="45.73319" lon="4.63163">
        <ele>583.288</ele>
        <time>2021-04-27T16:29:21Z</time>
      </trkpt>
      <trkpt lat="45.73314" lon="4.6316">
        <ele>583.632</ele>
        <time>2021-04-27T16:29:23Z</time>
      </trkpt>
      <trkpt lat="45.73306" lon="4.63157">
        <ele>584.047</ele>
        <time>2021-04-27T16:29:25Z</time>
      </trkpt>
      <trkpt lat="45.73298" lon="4.63155">
        <ele>584.385</ele>
        <time>2021-04-27T16:29:26Z</time>
      </trkpt>
      <trkpt lat="45.73293" lon="4.63153">
        <ele>584.714</ele>
        <time>2021-04-27T16:29:27Z</time>
      </trkpt>
      <trkpt lat="45.73286" lon="4.63152">
        <ele>585.116</ele>
        <time>2021-04-27T16:29:28Z</time>
      </trkpt>
      <trkpt lat="45.73279" lon="4.63149">
        <ele>585.738</ele>
        <time>2021-04-27T16:29:29Z</time>
      </trkpt>
      <trkpt lat="45.73273" lon="4.63144">
        <ele>586.222</ele>
        <time>2021-04-27T16:29:30Z</time>
      </trkpt>
      <trkpt lat="45.73267" lon="4.63139">
        <ele>587.017</ele>
        <time>2021-04-27T16:29:32Z</time>
      </trkpt>
      <trkpt lat="45.73262" lon="4.63134">
        <ele>587.887</ele>
        <time>2021-04-27T16:29:34Z</time>
      </trkpt>
      <trkpt lat="45.73256" lon="4.63131">
        <ele>588.615</ele>
        <time>2021-04-27T16:29:36Z</time>
      </trkpt>
      <trkpt lat="45.7325" lon="4.63127">
        <ele>589.508</ele>
        <time>2021-04-27T16:29:38Z</time>
      </trkpt>
      <trkpt lat="45.7324" lon="4.63122">
        <ele>590.578</ele>
        <time>2021-04-27T16:29:40Z</time>
      </trkpt>
      <trkpt lat="45.73233" lon="4.6312">
        <ele>591.242</ele>
        <time>2021-04-27T16:29:41Z</time>
      </trkpt>
      <trkpt lat="45.73227" lon="4.63117">
        <ele>592.047</ele>
        <time>2021-04-27T16:29:42Z</time>
      </trkpt>
      <trkpt lat="45.73221" lon="4.63114">
        <ele>592.935</ele>
        <time>2021-04-27T16:29:43Z</time>
      </trkpt>
      <trkpt lat="45.73215" lon="4.63107">
        <ele>593.944</ele>
        <time>2021-04-27T16:29:44Z</time>
      </trkpt>
      <trkpt lat="45.73211" lon="4.63101">
        <ele>595.166</ele>
        <time>2021-04-27T16:29:45Z</time>
      </trkpt>
      <trkpt lat="45.73206" lon="4.63095">
        <ele>596.488</ele>
        <time>2021-04-27T16:29:46Z</time>
      </trkpt>
      <trkpt lat="45.732" lon="4.63088">
        <ele>597.752</ele>
        <time>2021-04-27T16:29:47Z</time>
      </trkpt>
      <trkpt lat="45.73194" lon="4.63082">
        <ele>599.248</ele>
        <time>2021-04-27T16:29:48Z</time>
      </trkpt>
      <trkpt lat="45.73191" lon="4.63077">
        <ele>600.661</ele>
        <time>2021-04-27T16:29:49Z</time>
      </trkpt>
      <trkpt lat="45.73184" lon="4.63066">
        <ele>603.017</ele>
        <time>2021-04-27T16:29:51Z</time>
      </trkpt>
      <trkpt lat="45.7318" lon="4.63059">
        <ele>603.908</ele>
        <time>2021-04-27T16:29:52Z</time>
      </trkpt>
      <trkpt lat="45.73175" lon="4.63052">
        <ele>604.861</ele>
        <time>2021-04-27T16:29:53Z</time>
      </trkpt>
      <trkpt lat="45.73171" lon="4.63046">
        <ele>605.655</ele>
        <time>2021-04-27T16:29:54Z</time>
      </trkpt>
      <trkpt lat="45.73166" lon="4.63035">
        <ele>606.98</ele>
        <time>2021-04-27T16:29:56Z</time>
      </trkpt>
      <trkpt lat="45.73163" lon="4.63028">
        <ele>607.528</ele>
        <time>2021-04-27T16:29:57Z</time>
      </trkpt>
      <trkpt lat="45.73161" lon="4.63021">
        <ele>607.997</ele>
        <time>2021-04-27T16:29:58Z</time>
      </trkpt>
      <trkpt lat="45.7316" lon="4.63013">
        <ele>608.239</ele>
        <time>2021-04-27T16:29:59Z</time>
      </trkpt>
      <trkpt lat="45.73159" lon="4.63006">
        <ele>608.471</ele>
        <time>2021-04-27T16:30:00Z</time>
      </trkpt>
      <trkpt lat="45.73158" lon="4.62998">
        <ele>608.695</ele>
        <time>2021-04-27T16:30:01Z</time>
      </trkpt>
      <trkpt lat="45.73157" lon="4.62991">
        <ele>608.864</ele>
        <time>2021-04-27T16:30:02Z</time>
      </trkpt>
      <trkpt lat="45.73157" lon="4.6298">
        <ele>609.006</ele>
        <time>2021-04-27T16:30:04Z</time>
      </trkpt>
      <trkpt lat="45.73157" lon="4.6297">
        <ele>609.116</ele>
        <time>2021-04-27T16:30:06Z</time>
      </trkpt>
      <trkpt lat="45.73157" lon="4.6296">
        <ele>609.208</ele>
        <time>2021-04-27T16:30:08Z</time>
      </trkpt>
      <trkpt lat="45.73158" lon="4.62952">
        <ele>609.473</ele>
        <time>2021-04-27T16:30:10Z</time>
      </trkpt>
      <trkpt lat="45.73158" lon="4.62941">
        <ele>609.617</ele>
        <time>2021-04-27T16:30:12Z</time>
      </trkpt>
      <trkpt lat="45.73158" lon="4.62931">
        <ele>609.942</ele>
        <time>2021-04-27T16:30:14Z</time>
      </trkpt>
      <trkpt lat="45.73159" lon="4.62919">
        <ele>610.47</ele>
        <time>2021-04-27T16:30:16Z</time>
      </trkpt>
      <trkpt lat="45.73158" lon="4.62911">
        <ele>610.829</ele>
        <time>2021-04-27T16:30:17Z</time>
      </trkpt>
      <trkpt lat="45.73157" lon="4.62902">
        <ele>611.211</ele>
        <time>2021-04-27T16:30:18Z</time>
      </trkpt>
      <trkpt lat="45.73157" lon="4.62891">
        <ele>611.783</ele>
        <time>2021-04-27T16:30:19Z</time>
      </trkpt>
      <trkpt lat="45.73157" lon="4.62881">
        <ele>612.247</ele>
        <time>2021-04-27T16:30:20Z</time>
      </trkpt>
      <trkpt lat="45.7316" lon="4.62868">
        <ele>612.639</ele>
        <time>2021-04-27T16:30:21Z</time>
      </trkpt>
      <trkpt lat="45.73162" lon="4.62856">
        <ele>613.001</ele>
        <time>2021-04-27T16:30:22Z</time>
      </trkpt>
      <trkpt lat="45.73166" lon="4.62841">
        <ele>613.421</ele>
        <time>2021-04-27T16:30:23Z</time>
      </trkpt>
      <trkpt lat="45.73171" lon="4.62823">
        <ele>613.908</ele>
        <time>2021-04-27T16:30:24Z</time>
      </trkpt>
      <trkpt lat="45.73177" lon="4.62807">
        <ele>614.87</ele>
        <time>2021-04-27T16:30:25Z</time>
      </trkpt>
      <trkpt lat="45.73183" lon="4.62792">
        <ele>615.974</ele>
        <time>2021-04-27T16:30:26Z</time>
      </trkpt>
      <trkpt lat="45.73187" lon="4.6278">
        <ele>617.069</ele>
        <time>2021-04-27T16:30:27Z</time>
      </trkpt>
      <trkpt lat="45.7319" lon="4.62771">
        <ele>617.887</ele>
        <time>2021-04-27T16:30:28Z</time>
      </trkpt>
      <trkpt lat="45.73191" lon="4.62763">
        <ele>618.596</ele>
        <time>2021-04-27T16:30:29Z</time>
      </trkpt>
      <trkpt lat="45.73191" lon="4.62754">
        <ele>618.958</ele>
        <time>2021-04-27T16:30:30Z</time>
      </trkpt>
      <trkpt lat="45.73193" lon="4.62748">
        <ele>619.04</ele>
        <time>2021-04-27T16:30:31Z</time>
      </trkpt>
      <trkpt lat="45.73195" lon="4.62737">
        <ele>619.354</ele>
        <time>2021-04-27T16:30:33Z</time>
      </trkpt>
      <trkpt lat="45.73195" lon="4.62731">
        <ele>619.674</ele>
        <time>2021-04-27T16:30:35Z</time>
      </trkpt>
      <trkpt lat="45.73197" lon="4.62724">
        <ele>619.756</ele>
        <time>2021-04-27T16:30:37Z</time>
      </trkpt>
      <trkpt lat="45.732" lon="4.62715">
        <ele>619.621</ele>
        <time>2021-04-27T16:30:42Z</time>
      </trkpt>
      <trkpt lat="45.73204" lon="4.62707">
        <ele>619.508</ele>
        <time>2021-04-27T16:30:44Z</time>
      </trkpt>
      <trkpt lat="45.73208" lon="4.6276">
        <ele>625.224</ele>
        <time>2021-04-27T16:31:23Z</time>
      </trkpt>
      <trkpt lat="45.7321" lon="4.62766">
        <ele>626.338</ele>
        <time>2021-04-27T16:31:27Z</time>
      </trkpt>
      <trkpt lat="45.7321" lon="4.62773">
        <ele>627.113</ele>
        <time>2021-04-27T16:31:30Z</time>
      </trkpt>
      <trkpt lat="45.73212" lon="4.6278">
        <ele>628.241</ele>
        <time>2021-04-27T16:31:34Z</time>
      </trkpt>
      <trkpt lat="45.73213" lon="4.62788">
        <ele>628.96</ele>
        <time>2021-04-27T16:31:38Z</time>
      </trkpt>
      <trkpt lat="45.73214" lon="4.62796">
        <ele>629.692</ele>
        <time>2021-04-27T16:31:42Z</time>
      </trkpt>
      <trkpt lat="45.73215" lon="4.62802">
        <ele>630.064</ele>
        <time>2021-04-27T16:31:44Z</time>
      </trkpt>
      <trkpt lat="45.73216" lon="4.6281">
        <ele>630.848</ele>
        <time>2021-04-27T16:31:47Z</time>
      </trkpt>
      <trkpt lat="45.73219" lon="4.62819">
        <ele>631.677</ele>
        <time>2021-04-27T16:31:50Z</time>
      </trkpt>
      <trkpt lat="45.73222" lon="4.62828">
        <ele>632.161</ele>
        <time>2021-04-27T16:31:52Z</time>
      </trkpt>
      <trkpt lat="45.73225" lon="4.62833">
        <ele>633.727</ele>
        <time>2021-04-27T16:31:56Z</time>
      </trkpt>
      <trkpt lat="45.7323" lon="4.62833">
        <ele>635.208</ele>
        <time>2021-04-27T16:32:01Z</time>
      </trkpt>
      <trkpt lat="45.73234" lon="4.62829">
        <ele>636.674</ele>
        <time>2021-04-27T16:32:06Z</time>
      </trkpt>
      <trkpt lat="45.73239" lon="4.62825">
        <ele>637.728</ele>
        <time>2021-04-27T16:32:10Z</time>
      </trkpt>
      <trkpt lat="45.73243" lon="4.62821">
        <ele>639.163</ele>
        <time>2021-04-27T16:32:15Z</time>
      </trkpt>
      <trkpt lat="45.73248" lon="4.62816">
        <ele>640.031</ele>
        <time>2021-04-27T16:32:19Z</time>
      </trkpt>
      <trkpt lat="45.73253" lon="4.62812">
        <ele>641.12</ele>
        <time>2021-04-27T16:32:23Z</time>
      </trkpt>
      <trkpt lat="45.73257" lon="4.62809">
        <ele>641.942</ele>
        <time>2021-04-27T16:32:26Z</time>
      </trkpt>
      <trkpt lat="45.73261" lon="4.62805">
        <ele>643.014</ele>
        <time>2021-04-27T16:32:30Z</time>
      </trkpt>
      <trkpt lat="45.73265" lon="4.628">
        <ele>643.958</ele>
        <time>2021-04-27T16:32:33Z</time>
      </trkpt>
      <trkpt lat="45.73271" lon="4.62795">
        <ele>644.822</ele>
        <time>2021-04-27T16:32:36Z</time>
      </trkpt>
      <trkpt lat="45.73275" lon="4.62792">
        <ele>645.662</ele>
        <time>2021-04-27T16:32:38Z</time>
      </trkpt>
      <trkpt lat="45.7328" lon="4.62788">
        <ele>647.008</ele>
        <time>2021-04-27T16:32:41Z</time>
      </trkpt>
      <trkpt lat="45.73287" lon="4.62786">
        <ele>648.508</ele>
        <time>2021-04-27T16:32:45Z</time>
      </trkpt>
      <trkpt lat="45.73291" lon="4.62785">
        <ele>649.289</ele>
        <time>2021-04-27T16:32:47Z</time>
      </trkpt>
      <trkpt lat="45.73296" lon="4.62783">
        <ele>650.243</ele>
        <time>2021-04-27T16:32:50Z</time>
      </trkpt>
      <trkpt lat="45.73302" lon="4.62781">
        <ele>651.258</ele>
        <time>2021-04-27T16:32:53Z</time>
      </trkpt>
      <trkpt lat="45.73308" lon="4.62778">
        <ele>652.316</ele>
        <time>2021-04-27T16:32:56Z</time>
      </trkpt>
      <trkpt lat="45.73318" lon="4.62774">
        <ele>652.975</ele>
        <time>2021-04-27T16:32:58Z</time>
      </trkpt>
      <trkpt lat="45.73324" lon="4.62771">
        <ele>653.287</ele>
        <time>2021-04-27T16:32:59Z</time>
      </trkpt>
      <trkpt lat="45.7333" lon="4.62769">
        <ele>653.669</ele>
        <time>2021-04-27T16:33:00Z</time>
      </trkpt>
      <trkpt lat="45.73336" lon="4.62767">
        <ele>654.193</ele>
        <time>2021-04-27T16:33:01Z</time>
      </trkpt>
      <trkpt lat="45.7334" lon="4.62766">
        <ele>654.514</ele>
        <time>2021-04-27T16:33:02Z</time>
      </trkpt>
      <trkpt lat="45.73345" lon="4.62763">
        <ele>655.054</ele>
        <time>2021-04-27T16:33:04Z</time>
      </trkpt>
      <trkpt lat="45.7335" lon="4.62761">
        <ele>654.809</ele>
        <time>2021-04-27T16:33:07Z</time>
      </trkpt>
      <trkpt lat="45.73354" lon="4.62759">
        <ele>654.908</ele>
        <time>2021-04-27T16:33:11Z</time>
      </trkpt>
      <trkpt lat="45.73366" lon="4.62754">
        <ele>655.128</ele>
        <time>2021-04-27T16:33:13Z</time>
      </trkpt>
      <trkpt lat="45.73376" lon="4.62751">
        <ele>655.432</ele>
        <time>2021-04-27T16:33:14Z</time>
      </trkpt>
      <trkpt lat="45.73384" lon="4.62748">
        <ele>655.817</ele>
        <time>2021-04-27T16:33:15Z</time>
      </trkpt>
      <trkpt lat="45.73388" lon="4.62744">
        <ele>656.285</ele>
        <time>2021-04-27T16:33:16Z</time>
      </trkpt>
      <trkpt lat="45.73393" lon="4.6274">
        <ele>656.774</ele>
        <time>2021-04-27T16:33:18Z</time>
      </trkpt>
      <trkpt lat="45.73398" lon="4.62738">
        <ele>656.686</ele>
        <time>2021-04-27T16:33:20Z</time>
      </trkpt>
      <trkpt lat="45.73401" lon="4.62731">
        <ele>656.688</ele>
        <time>2021-04-27T16:33:22Z</time>
      </trkpt>
      <trkpt lat="45.73407" lon="4.62729">
        <ele>656.812</ele>
        <time>2021-04-27T16:33:24Z</time>
      </trkpt>
      <trkpt lat="45.73412" lon="4.62726">
        <ele>657.242</ele>
        <time>2021-04-27T16:33:26Z</time>
      </trkpt>
      <trkpt lat="45.73419" lon="4.62724">
        <ele>657.822</ele>
        <time>2021-04-27T16:33:29Z</time>
      </trkpt>
      <trkpt lat="45.73424" lon="4.62721">
        <ele>658.114</ele>
        <time>2021-04-27T16:33:31Z</time>
      </trkpt>
      <trkpt lat="45.73428" lon="4.62714">
        <ele>658.508</ele>
        <time>2021-04-27T16:33:33Z</time>
      </trkpt>
      <trkpt lat="45.73433" lon="4.6271">
        <ele>659.251</ele>
        <time>2021-04-27T16:33:35Z</time>
      </trkpt>
      <trkpt lat="45.73439" lon="4.62707">
        <ele>660.275</ele>
        <time>2021-04-27T16:33:38Z</time>
      </trkpt>
      <trkpt lat="45.73445" lon="4.62707">
        <ele>660.95</ele>
        <time>2021-04-27T16:33:40Z</time>
      </trkpt>
      <trkpt lat="45.73449" lon="4.62705">
        <ele>661.818</ele>
        <time>2021-04-27T16:33:42Z</time>
      </trkpt>
      <trkpt lat="45.73454" lon="4.62705">
        <ele>663.687</ele>
        <time>2021-04-27T16:33:45Z</time>
      </trkpt>
      <trkpt lat="45.73458" lon="4.62701">
        <ele>665.139</ele>
        <time>2021-04-27T16:33:48Z</time>
      </trkpt>
      <trkpt lat="45.73466" lon="4.62699">
        <ele>666.411</ele>
        <time>2021-04-27T16:33:51Z</time>
      </trkpt>
      <trkpt lat="45.73472" lon="4.62697">
        <ele>667.495</ele>
        <time>2021-04-27T16:33:54Z</time>
      </trkpt>
      <trkpt lat="45.73477" lon="4.62697">
        <ele>668.693</ele>
        <time>2021-04-27T16:33:57Z</time>
      </trkpt>
      <trkpt lat="45.73484" lon="4.62699">
        <ele>669.965</ele>
        <time>2021-04-27T16:34:00Z</time>
      </trkpt>
      <trkpt lat="45.7349" lon="4.62702">
        <ele>670.921</ele>
        <time>2021-04-27T16:34:03Z</time>
      </trkpt>
      <trkpt lat="45.73495" lon="4.62705">
        <ele>671.808</ele>
        <time>2021-04-27T16:34:05Z</time>
      </trkpt>
      <trkpt lat="45.735" lon="4.62704">
        <ele>673.126</ele>
        <time>2021-04-27T16:34:07Z</time>
      </trkpt>
      <trkpt lat="45.73505" lon="4.62704">
        <ele>675.88</ele>
        <time>2021-04-27T16:34:11Z</time>
      </trkpt>
      <trkpt lat="45.7351" lon="4.62702">
        <ele>677.175</ele>
        <time>2021-04-27T16:34:15Z</time>
      </trkpt>
      <trkpt lat="45.73516" lon="4.62699">
        <ele>678.093</ele>
        <time>2021-04-27T16:34:19Z</time>
      </trkpt>
      <trkpt lat="45.73521" lon="4.62696">
        <ele>679.252</ele>
        <time>2021-04-27T16:34:25Z</time>
      </trkpt>
      <trkpt lat="45.73525" lon="4.62692">
        <ele>679.874</ele>
        <time>2021-04-27T16:34:29Z</time>
      </trkpt>
      <trkpt lat="45.73529" lon="4.62687">
        <ele>680.436</ele>
        <time>2021-04-27T16:34:33Z</time>
      </trkpt>
      <trkpt lat="45.73534" lon="4.62686">
        <ele>681.87</ele>
        <time>2021-04-27T16:34:39Z</time>
      </trkpt>
      <trkpt lat="45.7354" lon="4.62682">
        <ele>682.383</ele>
        <time>2021-04-27T16:34:42Z</time>
      </trkpt>
      <trkpt lat="45.73544" lon="4.62677">
        <ele>682.725</ele>
        <time>2021-04-27T16:34:44Z</time>
      </trkpt>
      <trkpt lat="45.73547" lon="4.62669">
        <ele>683.317</ele>
        <time>2021-04-27T16:34:46Z</time>
      </trkpt>
      <trkpt lat="45.73548" lon="4.62662">
        <ele>684.208</ele>
        <time>2021-04-27T16:34:49Z</time>
      </trkpt>
      <trkpt lat="45.73551" lon="4.62656">
        <ele>685.345</ele>
        <time>2021-04-27T16:34:55Z</time>
      </trkpt>
      <trkpt lat="45.73552" lon="4.62649">
        <ele>685.939</ele>
        <time>2021-04-27T16:35:01Z</time>
      </trkpt>
      <trkpt lat="45.73557" lon="4.62646">
        <ele>686.764</ele>
        <time>2021-04-27T16:35:08Z</time>
      </trkpt>
      <trkpt lat="45.73561" lon="4.62639">
        <ele>687.992</ele>
        <time>2021-04-27T16:35:16Z</time>
      </trkpt>
      <trkpt lat="45.73565" lon="4.62634">
        <ele>688.781</ele>
        <time>2021-04-27T16:35:20Z</time>
      </trkpt>
      <trkpt lat="45.73569" lon="4.6263">
        <ele>689.653</ele>
        <time>2021-04-27T16:35:25Z</time>
      </trkpt>
      <trkpt lat="45.73573" lon="4.62625">
        <ele>690.555</ele>
        <time>2021-04-27T16:35:31Z</time>
      </trkpt>
      <trkpt lat="45.73575" lon="4.62619">
        <ele>690.859</ele>
        <time>2021-04-27T16:35:36Z</time>
      </trkpt>
      <trkpt lat="45.73575" lon="4.62613">
        <ele>691.192</ele>
        <time>2021-04-27T16:35:41Z</time>
      </trkpt>
      <trkpt lat="45.73575" lon="4.62606">
        <ele>691.673</ele>
        <time>2021-04-27T16:35:45Z</time>
      </trkpt>
      <trkpt lat="45.73577" lon="4.62598">
        <ele>692.22</ele>
        <time>2021-04-27T16:35:48Z</time>
      </trkpt>
      <trkpt lat="45.73575" lon="4.62592">
        <ele>693.008</ele>
        <time>2021-04-27T16:35:52Z</time>
      </trkpt>
      <trkpt lat="45.73575" lon="4.62583">
        <ele>693.636</ele>
        <time>2021-04-27T16:35:55Z</time>
      </trkpt>
      <trkpt lat="45.73573" lon="4.62577">
        <ele>694.35</ele>
        <time>2021-04-27T16:35:58Z</time>
      </trkpt>
      <trkpt lat="45.73573" lon="4.62571">
        <ele>694.985</ele>
        <time>2021-04-27T16:36:01Z</time>
      </trkpt>
      <trkpt lat="45.7357" lon="4.62561">
        <ele>695.753</ele>
        <time>2021-04-27T16:36:05Z</time>
      </trkpt>
      <trkpt lat="45.73569" lon="4.62552">
        <ele>696.092</ele>
        <time>2021-04-27T16:36:07Z</time>
      </trkpt>
      <trkpt lat="45.73567" lon="4.6254">
        <ele>696.484</ele>
        <time>2021-04-27T16:36:09Z</time>
      </trkpt>
      <trkpt lat="45.73566" lon="4.62527">
        <ele>697.196</ele>
        <time>2021-04-27T16:36:11Z</time>
      </trkpt>
      <trkpt lat="45.73564" lon="4.62519">
        <ele>697.93</ele>
        <time>2021-04-27T16:36:13Z</time>
      </trkpt>
      <trkpt lat="45.73562" lon="4.62513">
        <ele>698.636</ele>
        <time>2021-04-27T16:36:15Z</time>
      </trkpt>
      <trkpt lat="45.73562" lon="4.62506">
        <ele>699.317</ele>
        <time>2021-04-27T16:36:17Z</time>
      </trkpt>
      <trkpt lat="45.73561" lon="4.62499">
        <ele>700.418</ele>
        <time>2021-04-27T16:36:21Z</time>
      </trkpt>
      <trkpt lat="45.73559" lon="4.62492">
        <ele>701.008</ele>
        <time>2021-04-27T16:36:25Z</time>
      </trkpt>
      <trkpt lat="45.73557" lon="4.62486">
        <ele>701.47</ele>
        <time>2021-04-27T16:36:28Z</time>
      </trkpt>
      <trkpt lat="45.73555" lon="4.62479">
        <ele>701.994</ele>
        <time>2021-04-27T16:36:32Z</time>
      </trkpt>
      <trkpt lat="45.73555" lon="4.62471">
        <ele>702.349</ele>
        <time>2021-04-27T16:36:35Z</time>
      </trkpt>
      <trkpt lat="45.73553" lon="4.62463">
        <ele>702.877</ele>
        <time>2021-04-27T16:36:39Z</time>
      </trkpt>
      <trkpt lat="45.73553" lon="4.62454">
        <ele>703.526</ele>
        <time>2021-04-27T16:36:43Z</time>
      </trkpt>
      <trkpt lat="45.73552" lon="4.62446">
        <ele>704.558</ele>
        <time>2021-04-27T16:36:47Z</time>
      </trkpt>
      <trkpt lat="45.7355" lon="4.6244">
        <ele>706.03</ele>
        <time>2021-04-27T16:36:52Z</time>
      </trkpt>
      <trkpt lat="45.73548" lon="4.6243">
        <ele>706.994</ele>
        <time>2021-04-27T16:36:55Z</time>
      </trkpt>
      <trkpt lat="45.73546" lon="4.62423">
        <ele>707.652</ele>
        <time>2021-04-27T16:36:57Z</time>
      </trkpt>
      <trkpt lat="45.73545" lon="4.62417">
        <ele>709.053</ele>
        <time>2021-04-27T16:37:01Z</time>
      </trkpt>
      <trkpt lat="45.73545" lon="4.62409">
        <ele>709.708</ele>
        <time>2021-04-27T16:37:17Z</time>
      </trkpt>
      <trkpt lat="45.73543" lon="4.62401">
        <ele>710.308</ele>
        <time>2021-04-27T16:37:23Z</time>
      </trkpt>
      <trkpt lat="45.73544" lon="4.62395">
        <ele>711.722</ele>
        <time>2021-04-27T16:37:30Z</time>
      </trkpt>
      <trkpt lat="45.73544" lon="4.62388">
        <ele>712.786</ele>
        <time>2021-04-27T16:37:36Z</time>
      </trkpt>
      <trkpt lat="45.73543" lon="4.62381">
        <ele>713.941</ele>
        <time>2021-04-27T16:37:45Z</time>
      </trkpt>
      <trkpt lat="45.73543" lon="4.62374">
        <ele>714.649</ele>
        <time>2021-04-27T16:37:51Z</time>
      </trkpt>
      <trkpt lat="45.73542" lon="4.62367">
        <ele>715.118</ele>
        <time>2021-04-27T16:37:55Z</time>
      </trkpt>
      <trkpt lat="45.73541" lon="4.62358">
        <ele>716.17</ele>
        <time>2021-04-27T16:38:00Z</time>
      </trkpt>
      <trkpt lat="45.7354" lon="4.6235">
        <ele>717.142</ele>
        <time>2021-04-27T16:38:04Z</time>
      </trkpt>
      <trkpt lat="45.73539" lon="4.62343">
        <ele>717.796</ele>
        <time>2021-04-27T16:38:07Z</time>
      </trkpt>
      <trkpt lat="45.73538" lon="4.62334">
        <ele>718.271</ele>
        <time>2021-04-27T16:38:10Z</time>
      </trkpt>
      <trkpt lat="45.73537" lon="4.62325">
        <ele>719.041</ele>
        <time>2021-04-27T16:38:14Z</time>
      </trkpt>
      <trkpt lat="45.73536" lon="4.62314">
        <ele>719.615</ele>
        <time>2021-04-27T16:38:17Z</time>
      </trkpt>
      <trkpt lat="45.73533" lon="4.62302">
        <ele>720.008</ele>
        <time>2021-04-27T16:38:19Z</time>
      </trkpt>
      <trkpt lat="45.7353" lon="4.62292">
        <ele>720.514</ele>
        <time>2021-04-27T16:38:21Z</time>
      </trkpt>
      <trkpt lat="45.7353" lon="4.62284">
        <ele>720.918</ele>
        <time>2021-04-27T16:38:23Z</time>
      </trkpt>
      <trkpt lat="45.7353" lon="4.62275">
        <ele>721.343</ele>
        <time>2021-04-27T16:38:25Z</time>
      </trkpt>
      <trkpt lat="45.73531" lon="4.62269">
        <ele>721.811</ele>
        <time>2021-04-27T16:38:27Z</time>
      </trkpt>
      <trkpt lat="45.7353" lon="4.62262">
        <ele>722.44</ele>
        <time>2021-04-27T16:38:29Z</time>
      </trkpt>
      <trkpt lat="45.73528" lon="4.62255">
        <ele>722.942</ele>
        <time>2021-04-27T16:38:31Z</time>
      </trkpt>
      <trkpt lat="45.73526" lon="4.62248">
        <ele>723.234</ele>
        <time>2021-04-27T16:38:33Z</time>
      </trkpt>
      <trkpt lat="45.73526" lon="4.62241">
        <ele>723.418</ele>
        <time>2021-04-27T16:38:35Z</time>
      </trkpt>
      <trkpt lat="45.73526" lon="4.62234">
        <ele>723.684</ele>
        <time>2021-04-27T16:38:38Z</time>
      </trkpt>
      <trkpt lat="45.73527" lon="4.62225">
        <ele>724.007</ele>
        <time>2021-04-27T16:38:41Z</time>
      </trkpt>
      <trkpt lat="45.73527" lon="4.62218">
        <ele>724.617</ele>
        <time>2021-04-27T16:38:45Z</time>
      </trkpt>
      <trkpt lat="45.73528" lon="4.62211">
        <ele>725.308</ele>
        <time>2021-04-27T16:38:50Z</time>
      </trkpt>
      <trkpt lat="45.73528" lon="4.62204">
        <ele>725.775</ele>
        <time>2021-04-27T16:38:56Z</time>
      </trkpt>
      <trkpt lat="45.73529" lon="4.62197">
        <ele>726.039</ele>
        <time>2021-04-27T16:39:00Z</time>
      </trkpt>
      <trkpt lat="45.7353" lon="4.6219">
        <ele>726.234</ele>
        <time>2021-04-27T16:39:03Z</time>
      </trkpt>
      <trkpt lat="45.73531" lon="4.62183">
        <ele>726.442</ele>
        <time>2021-04-27T16:39:06Z</time>
      </trkpt>
      <trkpt lat="45.73532" lon="4.62176">
        <ele>726.771</ele>
        <time>2021-04-27T16:39:09Z</time>
      </trkpt>
      <trkpt lat="45.73533" lon="4.62169">
        <ele>727.083</ele>
        <time>2021-04-27T16:39:12Z</time>
      </trkpt>
      <trkpt lat="45.73534" lon="4.62162">
        <ele>727.335</ele>
        <time>2021-04-27T16:39:15Z</time>
      </trkpt>
      <trkpt lat="45.73535" lon="4.62153">
        <ele>727.769</ele>
        <time>2021-04-27T16:39:19Z</time>
      </trkpt>
      <trkpt lat="45.73536" lon="4.62144">
        <ele>728.197</ele>
        <time>2021-04-27T16:39:22Z</time>
      </trkpt>
      <trkpt lat="45.73537" lon="4.62134">
        <ele>728.623</ele>
        <time>2021-04-27T16:39:25Z</time>
      </trkpt>
      <trkpt lat="45.73538" lon="4.62127">
        <ele>729.025</ele>
        <time>2021-04-27T16:39:27Z</time>
      </trkpt>
      <trkpt lat="45.73538" lon="4.62119">
        <ele>729.408</ele>
        <time>2021-04-27T16:39:29Z</time>
      </trkpt>
      <trkpt lat="45.73538" lon="4.6211">
        <ele>729.896</ele>
        <time>2021-04-27T16:39:31Z</time>
      </trkpt>
      <trkpt lat="45.73541" lon="4.62101">
        <ele>729.97</ele>
        <time>2021-04-27T16:39:33Z</time>
      </trkpt>
      <trkpt lat="45.73541" lon="4.62093">
        <ele>729.875</ele>
        <time>2021-04-27T16:39:35Z</time>
      </trkpt>
      <trkpt lat="45.73542" lon="4.62083">
        <ele>729.723</ele>
        <time>2021-04-27T16:39:37Z</time>
      </trkpt>
      <trkpt lat="45.73544" lon="4.62075">
        <ele>729.622</ele>
        <time>2021-04-27T16:39:39Z</time>
      </trkpt>
      <trkpt lat="45.73544" lon="4.62065">
        <ele>729.684</ele>
        <time>2021-04-27T16:39:41Z</time>
      </trkpt>
      <trkpt lat="45.73545" lon="4.62055">
        <ele>729.786</ele>
        <time>2021-04-27T16:39:42Z</time>
      </trkpt>
      <trkpt lat="45.73546" lon="4.62047">
        <ele>729.88</ele>
        <time>2021-04-27T16:39:43Z</time>
      </trkpt>
      <trkpt lat="45.73548" lon="4.6204">
        <ele>729.978</ele>
        <time>2021-04-27T16:39:44Z</time>
      </trkpt>
      <trkpt lat="45.7355" lon="4.62031">
        <ele>730.133</ele>
        <time>2021-04-27T16:39:46Z</time>
      </trkpt>
      <trkpt lat="45.73551" lon="4.62022">
        <ele>730.226</ele>
        <time>2021-04-27T16:39:49Z</time>
      </trkpt>
      <trkpt lat="45.73552" lon="4.62013">
        <ele>730.108</ele>
        <time>2021-04-27T16:39:53Z</time>
      </trkpt>
      <trkpt lat="45.73553" lon="4.62004">
        <ele>730.244</ele>
        <time>2021-04-27T16:39:55Z</time>
      </trkpt>
      <trkpt lat="45.73555" lon="4.61994">
        <ele>730.488</ele>
        <time>2021-04-27T16:39:57Z</time>
      </trkpt>
      <trkpt lat="45.73556" lon="4.61987">
        <ele>730.533</ele>
        <time>2021-04-27T16:39:59Z</time>
      </trkpt>
      <trkpt lat="45.73557" lon="4.61979">
        <ele>730.671</ele>
        <time>2021-04-27T16:40:01Z</time>
      </trkpt>
      <trkpt lat="45.73558" lon="4.6197">
        <ele>730.84</ele>
        <time>2021-04-27T16:40:03Z</time>
      </trkpt>
      <trkpt lat="45.73558" lon="4.61961">
        <ele>731.042</ele>
        <time>2021-04-27T16:40:05Z</time>
      </trkpt>
      <trkpt lat="45.7356" lon="4.61952">
        <ele>731.314</ele>
        <time>2021-04-27T16:40:07Z</time>
      </trkpt>
      <trkpt lat="45.73561" lon="4.61939">
        <ele>731.618</ele>
        <time>2021-04-27T16:40:09Z</time>
      </trkpt>
      <trkpt lat="45.73562" lon="4.61932">
        <ele>731.937</ele>
        <time>2021-04-27T16:40:11Z</time>
      </trkpt>
      <trkpt lat="45.73563" lon="4.61925">
        <ele>732.349</ele>
        <time>2021-04-27T16:40:14Z</time>
      </trkpt>
      <trkpt lat="45.73564" lon="4.61916">
        <ele>732.713</ele>
        <time>2021-04-27T16:40:16Z</time>
      </trkpt>
      <trkpt lat="45.73565" lon="4.61909">
        <ele>732.908</ele>
        <time>2021-04-27T16:40:17Z</time>
      </trkpt>
      <trkpt lat="45.73566" lon="4.61895">
        <ele>733.42</ele>
        <time>2021-04-27T16:40:19Z</time>
      </trkpt>
      <trkpt lat="45.73566" lon="4.61887">
        <ele>733.674</ele>
        <time>2021-04-27T16:40:20Z</time>
      </trkpt>
      <trkpt lat="45.73567" lon="4.61879">
        <ele>733.799</ele>
        <time>2021-04-27T16:40:21Z</time>
      </trkpt>
      <trkpt lat="45.73568" lon="4.6187">
        <ele>733.797</ele>
        <time>2021-04-27T16:40:22Z</time>
      </trkpt>
      <trkpt lat="45.7357" lon="4.61862">
        <ele>733.636</ele>
        <time>2021-04-27T16:40:23Z</time>
      </trkpt>
      <trkpt lat="45.73571" lon="4.61856">
        <ele>733.528</ele>
        <time>2021-04-27T16:40:24Z</time>
      </trkpt>
      <trkpt lat="45.73572" lon="4.61845">
        <ele>733.42</ele>
        <time>2021-04-27T16:40:25Z</time>
      </trkpt>
      <trkpt lat="45.73574" lon="4.61835">
        <ele>733.444</ele>
        <time>2021-04-27T16:40:26Z</time>
      </trkpt>
      <trkpt lat="45.73577" lon="4.61822">
        <ele>733.414</ele>
        <time>2021-04-27T16:40:27Z</time>
      </trkpt>
      <trkpt lat="45.73581" lon="4.61809">
        <ele>733.754</ele>
        <time>2021-04-27T16:40:28Z</time>
      </trkpt>
      <trkpt lat="45.73584" lon="4.618">
        <ele>733.909</ele>
        <time>2021-04-27T16:40:29Z</time>
      </trkpt>
      <trkpt lat="45.73586" lon="4.61793">
        <ele>733.908</ele>
        <time>2021-04-27T16:40:30Z</time>
      </trkpt>
      <trkpt lat="45.73589" lon="4.61788">
        <ele>733.848</ele>
        <time>2021-04-27T16:40:32Z</time>
      </trkpt>
      <trkpt lat="45.73594" lon="4.61781">
        <ele>733.052</ele>
        <time>2021-04-27T16:40:44Z</time>
      </trkpt>
      <trkpt lat="45.73598" lon="4.61774">
        <ele>733.277</ele>
        <time>2021-04-27T16:40:46Z</time>
      </trkpt>
      <trkpt lat="45.73602" lon="4.61769">
        <ele>733.385</ele>
        <time>2021-04-27T16:40:47Z</time>
      </trkpt>
      <trkpt lat="45.73606" lon="4.61763">
        <ele>733.374</ele>
        <time>2021-04-27T16:40:49Z</time>
      </trkpt>
      <trkpt lat="45.7361" lon="4.61759">
        <ele>733.346</ele>
        <time>2021-04-27T16:40:49Z</time>
      </trkpt>
      <trkpt lat="45.73614" lon="4.61755">
        <ele>733.298</ele>
        <time>2021-04-27T16:40:50Z</time>
      </trkpt>
      <trkpt lat="45.73619" lon="4.61749">
        <ele>733.112</ele>
        <time>2021-04-27T16:40:51Z</time>
      </trkpt>
      <trkpt lat="45.73623" lon="4.61745">
        <ele>733.041</ele>
        <time>2021-04-27T16:40:52Z</time>
      </trkpt>
      <trkpt lat="45.73628" lon="4.61741">
        <ele>732.981</ele>
        <time>2021-04-27T16:40:53Z</time>
      </trkpt>
      <trkpt lat="45.73633" lon="4.61736">
        <ele>732.809</ele>
        <time>2021-04-27T16:40:54Z</time>
      </trkpt>
      <trkpt lat="45.73637" lon="4.61731">
        <ele>732.708</ele>
        <time>2021-04-27T16:40:55Z</time>
      </trkpt>
      <trkpt lat="45.73641" lon="4.61725">
        <ele>732.641</ele>
        <time>2021-04-27T16:40:56Z</time>
      </trkpt>
      <trkpt lat="45.73646" lon="4.61719">
        <ele>732.615</ele>
        <time>2021-04-27T16:40:57Z</time>
      </trkpt>
      <trkpt lat="45.73651" lon="4.61713">
        <ele>732.68</ele>
        <time>2021-04-27T16:40:58Z</time>
      </trkpt>
      <trkpt lat="45.73656" lon="4.61707">
        <ele>732.718</ele>
        <time>2021-04-27T16:40:59Z</time>
      </trkpt>
      <trkpt lat="45.7366" lon="4.617">
        <ele>732.997</ele>
        <time>2021-04-27T16:41:00Z</time>
      </trkpt>
      <trkpt lat="45.73663" lon="4.61693">
        <ele>732.949</ele>
        <time>2021-04-27T16:41:01Z</time>
      </trkpt>
      <trkpt lat="45.73666" lon="4.61687">
        <ele>732.961</ele>
        <time>2021-04-27T16:41:02Z</time>
      </trkpt>
      <trkpt lat="45.73669" lon="4.61676">
        <ele>732.775</ele>
        <time>2021-04-27T16:41:04Z</time>
      </trkpt>
      <trkpt lat="45.73671" lon="4.61665">
        <ele>732.519</ele>
        <time>2021-04-27T16:41:06Z</time>
      </trkpt>
      <trkpt lat="45.73672" lon="4.61656">
        <ele>732.509</ele>
        <time>2021-04-27T16:41:08Z</time>
      </trkpt>
      <trkpt lat="45.73672" lon="4.61648">
        <ele>732.619</ele>
        <time>2021-04-27T16:41:11Z</time>
      </trkpt>
      <trkpt lat="45.73674" lon="4.61641">
        <ele>732.708</ele>
        <time>2021-04-27T16:41:14Z</time>
      </trkpt>
      <trkpt lat="45.73677" lon="4.61635">
        <ele>733.298</ele>
        <time>2021-04-27T16:41:16Z</time>
      </trkpt>
      <trkpt lat="45.73684" lon="4.61626">
        <ele>734.322</ele>
        <time>2021-04-27T16:41:25Z</time>
      </trkpt>
      <trkpt lat="45.73691" lon="4.61618">
        <ele>734.687</ele>
        <time>2021-04-27T16:41:26Z</time>
      </trkpt>
      <trkpt lat="45.73697" lon="4.61609">
        <ele>735.155</ele>
        <time>2021-04-27T16:41:27Z</time>
      </trkpt>
      <trkpt lat="45.73703" lon="4.61598">
        <ele>735.894</ele>
        <time>2021-04-27T16:41:28Z</time>
      </trkpt>
      <trkpt lat="45.73709" lon="4.61585">
        <ele>736.836</ele>
        <time>2021-04-27T16:41:29Z</time>
      </trkpt>
      <trkpt lat="45.73714" lon="4.61572">
        <ele>738.068</ele>
        <time>2021-04-27T16:41:30Z</time>
      </trkpt>
      <trkpt lat="45.73718" lon="4.61566">
        <ele>739.232</ele>
        <time>2021-04-27T16:41:31Z</time>
      </trkpt>
      <trkpt lat="45.73724" lon="4.61559">
        <ele>740.661</ele>
        <time>2021-04-27T16:41:32Z</time>
      </trkpt>
      <trkpt lat="45.73732" lon="4.61554">
        <ele>742.121</ele>
        <time>2021-04-27T16:41:33Z</time>
      </trkpt>
      <trkpt lat="45.73741" lon="4.61551">
        <ele>743.513</ele>
        <time>2021-04-27T16:41:34Z</time>
      </trkpt>
      <trkpt lat="45.73749" lon="4.61551">
        <ele>744.908</ele>
        <time>2021-04-27T16:41:35Z</time>
      </trkpt>
      <trkpt lat="45.73758" lon="4.61551">
        <ele>746.423</ele>
        <time>2021-04-27T16:41:36Z</time>
      </trkpt>
      <trkpt lat="45.73768" lon="4.61551">
        <ele>747.957</ele>
        <time>2021-04-27T16:41:37Z</time>
      </trkpt>
      <trkpt lat="45.73778" lon="4.61551">
        <ele>749.372</ele>
        <time>2021-04-27T16:41:38Z</time>
      </trkpt>
      <trkpt lat="45.73786" lon="4.61552">
        <ele>750.66</ele>
        <time>2021-04-27T16:41:39Z</time>
      </trkpt>
      <trkpt lat="45.73795" lon="4.61553">
        <ele>751.719</ele>
        <time>2021-04-27T16:41:40Z</time>
      </trkpt>
      <trkpt lat="45.73801" lon="4.61553">
        <ele>752.551</ele>
        <time>2021-04-27T16:41:41Z</time>
      </trkpt>
      <trkpt lat="45.73805" lon="4.61554">
        <ele>753.013</ele>
        <time>2021-04-27T16:41:42Z</time>
      </trkpt>
      <trkpt lat="45.7381" lon="4.61553">
        <ele>753.327</ele>
        <time>2021-04-27T16:41:43Z</time>
      </trkpt>
      <trkpt lat="45.73815" lon="4.61553">
        <ele>753.425</ele>
        <time>2021-04-27T16:41:44Z</time>
      </trkpt>
      <trkpt lat="45.73823" lon="4.61551">
        <ele>753.426</ele>
        <time>2021-04-27T16:41:46Z</time>
      </trkpt>
      <trkpt lat="45.73828" lon="4.6155">
        <ele>753.408</ele>
        <time>2021-04-27T16:41:47Z</time>
      </trkpt>
      <trkpt lat="45.73834" lon="4.61548">
        <ele>753.408</ele>
        <time>2021-04-27T16:41:48Z</time>
      </trkpt>
      <trkpt lat="45.7384" lon="4.61544">
        <ele>753.579</ele>
        <time>2021-04-27T16:41:49Z</time>
      </trkpt>
      <trkpt lat="45.73846" lon="4.6154">
        <ele>753.653</ele>
        <time>2021-04-27T16:41:50Z</time>
      </trkpt>
      <trkpt lat="45.73852" lon="4.61535">
        <ele>753.848</ele>
        <time>2021-04-27T16:41:51Z</time>
      </trkpt>
      <trkpt lat="45.73858" lon="4.6153">
        <ele>754.086</ele>
        <time>2021-04-27T16:41:52Z</time>
      </trkpt>
      <trkpt lat="45.73864" lon="4.61522">
        <ele>754.385</ele>
        <time>2021-04-27T16:41:53Z</time>
      </trkpt>
      <trkpt lat="45.7387" lon="4.61513">
        <ele>754.777</ele>
        <time>2021-04-27T16:41:54Z</time>
      </trkpt>
      <trkpt lat="45.73875" lon="4.61504">
        <ele>755.149</ele>
        <time>2021-04-27T16:41:55Z</time>
      </trkpt>
      <trkpt lat="45.73882" lon="4.61493">
        <ele>755.613</ele>
        <time>2021-04-27T16:41:56Z</time>
      </trkpt>
      <trkpt lat="45.73888" lon="4.61483">
        <ele>756.271</ele>
        <time>2021-04-27T16:41:57Z</time>
      </trkpt>
      <trkpt lat="45.73895" lon="4.61472">
        <ele>756.841</ele>
        <time>2021-04-27T16:41:58Z</time>
      </trkpt>
      <trkpt lat="45.73902" lon="4.61462">
        <ele>757.215</ele>
        <time>2021-04-27T16:41:59Z</time>
      </trkpt>
      <trkpt lat="45.73909" lon="4.61452">
        <ele>757.608</ele>
        <time>2021-04-27T16:42:00Z</time>
      </trkpt>
      <trkpt lat="45.73916" lon="4.61445">
        <ele>757.864</ele>
        <time>2021-04-27T16:42:01Z</time>
      </trkpt>
      <trkpt lat="45.73923" lon="4.61437">
        <ele>758.048</ele>
        <time>2021-04-27T16:42:02Z</time>
      </trkpt>
      <trkpt lat="45.73932" lon="4.61432">
        <ele>758.253</ele>
        <time>2021-04-27T16:42:03Z</time>
      </trkpt>
      <trkpt lat="45.73943" lon="4.6143">
        <ele>758.581</ele>
        <time>2021-04-27T16:42:04Z</time>
      </trkpt>
      <trkpt lat="45.73955" lon="4.61427">
        <ele>758.89</ele>
        <time>2021-04-27T16:42:05Z</time>
      </trkpt>
      <trkpt lat="45.73965" lon="4.61426">
        <ele>759.372</ele>
        <time>2021-04-27T16:42:06Z</time>
      </trkpt>
      <trkpt lat="45.73975" lon="4.61425">
        <ele>759.834</ele>
        <time>2021-04-27T16:42:07Z</time>
      </trkpt>
      <trkpt lat="45.73984" lon="4.61425">
        <ele>760.388</ele>
        <time>2021-04-27T16:42:08Z</time>
      </trkpt>
      <trkpt lat="45.73992" lon="4.61425">
        <ele>760.933</ele>
        <time>2021-04-27T16:42:09Z</time>
      </trkpt>
      <trkpt lat="45.74002" lon="4.61422">
        <ele>761.623</ele>
        <time>2021-04-27T16:42:10Z</time>
      </trkpt>
      <trkpt lat="45.74011" lon="4.61418">
        <ele>762.415</ele>
        <time>2021-04-27T16:42:11Z</time>
      </trkpt>
      <trkpt lat="45.74019" lon="4.61413">
        <ele>763.208</ele>
        <time>2021-04-27T16:42:12Z</time>
      </trkpt>
      <trkpt lat="45.74024" lon="4.61407">
        <ele>764.14</ele>
        <time>2021-04-27T16:42:13Z</time>
      </trkpt>
      <trkpt lat="45.7403" lon="4.61401">
        <ele>764.974</ele>
        <time>2021-04-27T16:42:14Z</time>
      </trkpt>
      <trkpt lat="45.74039" lon="4.61395">
        <ele>765.879</ele>
        <time>2021-04-27T16:42:15Z</time>
      </trkpt>
      <trkpt lat="45.74045" lon="4.61389">
        <ele>766.787</ele>
        <time>2021-04-27T16:42:16Z</time>
      </trkpt>
      <trkpt lat="45.7405" lon="4.61381">
        <ele>767.656</ele>
        <time>2021-04-27T16:42:17Z</time>
      </trkpt>
      <trkpt lat="45.74055" lon="4.61373">
        <ele>768.538</ele>
        <time>2021-04-27T16:42:18Z</time>
      </trkpt>
      <trkpt lat="45.74061" lon="4.61365">
        <ele>769.47</ele>
        <time>2021-04-27T16:42:19Z</time>
      </trkpt>
      <trkpt lat="45.74066" lon="4.61356">
        <ele>770.274</ele>
        <time>2021-04-27T16:42:20Z</time>
      </trkpt>
      <trkpt lat="45.7407" lon="4.61346">
        <ele>771.033</ele>
        <time>2021-04-27T16:42:21Z</time>
      </trkpt>
      <trkpt lat="45.74074" lon="4.61338">
        <ele>771.923</ele>
        <time>2021-04-27T16:42:22Z</time>
      </trkpt>
      <trkpt lat="45.74079" lon="4.61329">
        <ele>772.915</ele>
        <time>2021-04-27T16:42:23Z</time>
      </trkpt>
      <trkpt lat="45.74084" lon="4.6132">
        <ele>773.908</ele>
        <time>2021-04-27T16:42:24Z</time>
      </trkpt>
      <trkpt lat="45.74089" lon="4.61313">
        <ele>774.92</ele>
        <time>2021-04-27T16:42:25Z</time>
      </trkpt>
      <trkpt lat="45.74093" lon="4.61306">
        <ele>775.994</ele>
        <time>2021-04-27T16:42:26Z</time>
      </trkpt>
      <trkpt lat="45.74097" lon="4.61301">
        <ele>776.799</ele>
        <time>2021-04-27T16:42:27Z</time>
      </trkpt>
      <trkpt lat="45.74101" lon="4.61296">
        <ele>777.387</ele>
        <time>2021-04-27T16:42:28Z</time>
      </trkpt>
      <trkpt lat="45.74107" lon="4.6129">
        <ele>778.366</ele>
        <time>2021-04-27T16:42:30Z</time>
      </trkpt>
    </trkseg>
  </trk>
</gpx>